CheckWX is a tool to help pilots better visualize weather data.  It is not intended as a substitute for an official pre-flight weather briefing.

04:54:25 UTC

CYYT METAR
St. John's International Airport
St. John's, Canada
Current

54 mins ago

CYYT 260400Z 26013KT 15SM FEW240 11/08 A3031 RMK CI1 SLP267
Observed
Aug-26 @ 04:00 UTC
Wind
  • 260° at 13 KTS
Visibility
15 SM
Flight Rules
VFR
Cloud Levels
  • Few at 24,000' AGL
Temperature
11°C / 52°F
Dewpoint
C / 46°F
Humidity
82%
Altimeter
30.31" Hg
Pressure
1026.42 hPa
Previous

2 hours ago

CYYT 260300Z 26014KT 15SM FEW240 11/08 A3032 RMK CI2 SLP270
Observed
Aug-26 @ 03:00 UTC
Wind
  • 260° at 14 KTS
Visibility
15 SM
Flight Rules
VFR
Cloud Levels
  • Few at 24,000' AGL
Temperature
11°C / 52°F
Dewpoint
C / 46°F
Humidity
82%
Altimeter
30.32" Hg
Pressure
1026.72 hPa
Previous

3 hours ago

CYYT 260200Z 27014KT 15SM FEW240 11/08 A3032 RMK CI1 SLP273
Observed
Aug-26 @ 02:00 UTC
Wind
  • 270° at 14 KTS
Visibility
15 SM
Flight Rules
VFR
Cloud Levels
  • Few at 24,000' AGL
Temperature
11°C / 52°F
Dewpoint
C / 46°F
Humidity
82%
Altimeter
30.32" Hg
Pressure
1026.72 hPa